Airfield :
LOGIN :

Register | Disclaimer

   EN    FR    IT 

 










Legend :    VFR   Marginal VFR   IFR   Intensive IFR   Very Intensive IFR
Visi :
Ceiling :
>= 8 km
>= 3000ft
5 to 8 km
1000 to 3000 ft
1500m to 5 km
500 to 1000 ft
800 to 1500m
200 to 500 ft
< 800m
< 200 ft
Symbols :   Thunderstorms  Fog  Heavy snow  Heavy precipitations  Wind > 20 kt
SIGMETs :     Misc.  Thunderstorms  Icing  Turbulence  Mountain Waves  Volcanic Ashes







- Airport Elevation : 202 ft
- IATA code : LGW
- Download approach charts


EGKK - London Gatwick

CURRENT METAR :
  • 220020Z 11005KT 080V150 8000 -RA SCT006 BKN014 15/15 Q1006

EXPIRED METARs :
  • 212350Z 08004KT 9999 -RA SCT008 BKN015 15/14 Q1006 RERA
  • 212320Z VRB03KT 8000 RA SCT007 BKN011 BKN015 15/14 Q1006
  • 212250Z 11004KT 080V150 9999 RA FEW013 14/14 Q1006
  • 212220Z 00000KT 9999 -RA FEW012 SCT016 BKN022 14/13 Q1006 RERA
  • 212150Z 20007KT 160V250 9999 -RA FEW010 BKN020 16/14 Q1007 RERA

TAF TAF EGKK
Valid from the 22 at 00:00 until the 23 at 06:00 UTC


212255Z 2200/2306 14010KT 9999 BKN025
BECMG 2200/2203 23005KT
TEMPO 2200/2203 8000 RA BKN012
PROB30
TEMPO 2200/2201 4000 +SHRA BKN008
TEMPO 2210/2301 6000 SHRA
PROB30
TEMPO 2215/2224 4000 +SHRA BKN014 BKN030CB
PROB40 2302/2306 4000 BR MIFG
No reported NOTAMs for that airfield.



MET'MAP, your aeronautical weather chart ! - Copyright ORBIFLY December 2007 - Disclaimer

ORBIFLY MET'MAP TEAM :

Programming & Development : Alexandra Zaïnal
Concept & Development : Baudouin d'Aumeries
Co-Development & Prog : Marc-Olivier Méhu
Technical & hardware support : Manuel Goepfert

Contact : metmap@orbifly.com




SOURCES & CREDITS :

   NOAA